CDC8987 ZYHB-ZSHC
Flight info
| Callsign | CDC8987 |
|---|---|
| Flight time | 2h 39m |
| Altitude | 34100 |
| Route | DUK07D DUKIR W655 NIMEM W205 NULRA A588 UDETI W106 MAKNO W5 TAO/K0848S1070 DCT URBAD W172 LATUX W108 MATNU/K0865S1100 W115 PINOT B221 SUPAR W505 DSH |
| Aircraft | A21N/M-SDE3FGHIRWY/LB1 |
Departure
| Time | 2026-04-23 10:55 |
|---|---|
| Airport | Harbin Taiping International Airport (ZYHB) |
Arrival
| Time | 2026-04-23 13:34 |
|---|---|
| Airport | Hangzhou Xiaoshan International Airport (ZSHC) |
| Time | Latitude | Longitude | Altitude | Speed | Heading |
|---|---|---|---|---|---|
| 2026-04-23 10:27 | 45.61855 | 126.23598 | 466 ft | 0 kts | 36° |
| 2026-04-23 10:42 | 45.61855 | 126.23597 | 466 ft | 0 kts | 36° |
| 2026-04-23 10:46 | 45.61846 | 126.23587 | 466 ft | 2 kts | 37° |
| 2026-04-23 10:46 | 45.61834 | 126.23575 | 466 ft | 2 kts | 36° |
| 2026-04-23 10:46 | 45.61822 | 126.23563 | 466 ft | 2 kts | 18° |
| 2026-04-23 10:46 | 45.61808 | 126.23559 | 466 ft | 2 kts | 360° |
| 2026-04-23 10:47 | 45.61793 | 126.23562 | 466 ft | 2 kts | 339° |
| 2026-04-23 10:47 | 45.61780 | 126.23572 | 466 ft | 2 kts | 319° |
| 2026-04-23 10:47 | 45.61770 | 126.23588 | 466 ft | 2 kts | 304° |
| 2026-04-23 10:47 | 45.61761 | 126.23605 | 466 ft | 2 kts | 310° |
| 2026-04-23 10:48 | 45.61751 | 126.23621 | 466 ft | 2 kts | 308° |
| 2026-04-23 10:48 | 45.61742 | 126.23637 | 466 ft | 2 kts | 309° |
| 2026-04-23 10:48 | 45.61733 | 126.23654 | 466 ft | 2 kts | 309° |
| 2026-04-23 10:48 | 45.61725 | 126.23667 | 466 ft | 0 kts | 309° |
| 2026-04-23 10:49 | 45.61718 | 126.23682 | 466 ft | 2 kts | 285° |
| 2026-04-23 10:49 | 45.61717 | 126.23704 | 466 ft | 2 kts | 260° |
| 2026-04-23 10:49 | 45.61722 | 126.23723 | 466 ft | 2 kts | 234° |
| 2026-04-23 10:49 | 45.61728 | 126.23733 | 466 ft | 1 kts | 219° |
| 2026-04-23 10:50 | 45.61733 | 126.23738 | 466 ft | 0 kts | 218° |
| 2026-04-23 10:51 | 45.61732 | 126.23737 | 466 ft | 1 kts | 218° |
| 2026-04-23 10:52 | 45.61710 | 126.23707 | 466 ft | 8 kts | 224° |
| 2026-04-23 10:52 | 45.61626 | 126.23601 | 466 ft | 20 kts | 219° |
| 2026-04-23 10:52 | 45.61517 | 126.23474 | 466 ft | 20 kts | 219° |
| 2026-04-23 10:52 | 45.61413 | 126.23364 | 466 ft | 15 kts | 186° |
| 2026-04-23 10:53 | 45.61334 | 126.23463 | 466 ft | 15 kts | 135° |
| 2026-04-23 10:53 | 45.61255 | 126.23564 | 466 ft | 14 kts | 115° |
| 2026-04-23 10:53 | 45.61262 | 126.23712 | 466 ft | 14 kts | 73° |
| 2026-04-23 10:53 | 45.61315 | 126.23817 | 466 ft | 10 kts | 40° |
| 2026-04-23 10:54 | 45.61404 | 126.23921 | 466 ft | 36 kts | 39° |
| 2026-04-23 10:54 | 45.61794 | 126.24375 | 466 ft | 106 kts | 40° |
| 2026-04-23 10:54 | 45.62522 | 126.25229 | 470 ft | 162 kts | 39° |
| 2026-04-23 10:54 | 45.63411 | 126.26267 | 1038 ft | 166 kts | 41° |
| 2026-04-23 10:55 | 45.64393 | 126.27145 | 1680 ft | 175 kts | 14° |
| 2026-04-23 10:55 | 45.65608 | 126.26890 | 2363 ft | 187 kts | 339° |
| 2026-04-23 10:55 | 45.66801 | 126.26012 | 2890 ft | 201 kts | 336° |
| 2026-04-23 10:55 | 45.68100 | 126.25079 | 3369 ft | 218 kts | 336° |
| 2026-04-23 10:56 | 45.69527 | 126.24049 | 3778 ft | 240 kts | 335° |
| 2026-04-23 10:56 | 45.71031 | 126.22948 | 4464 ft | 250 kts | 334° |
| 2026-04-23 10:56 | 45.72554 | 126.21827 | 5414 ft | 249 kts | 332° |
| 2026-04-23 10:56 | 45.74052 | 126.20686 | 6331 ft | 247 kts | 326° |
| 2026-04-23 10:57 | 45.75235 | 126.18964 | 7176 ft | 247 kts | 300° |
| 2026-04-23 10:57 | 45.75890 | 126.16635 | 7773 ft | 260 kts | 289° |
| 2026-04-23 10:57 | 45.76444 | 126.14133 | 8434 ft | 268 kts | 289° |
| 2026-04-23 10:57 | 45.77002 | 126.11620 | 9215 ft | 271 kts | 289° |
| 2026-04-23 10:58 | 45.77584 | 126.09054 | 9992 ft | 273 kts | 290° |
| 2026-04-23 10:58 | 45.78111 | 126.06419 | 10649 ft | 281 kts | 280° |
| 2026-04-23 10:58 | 45.77992 | 126.03543 | 10987 ft | 304 kts | 257° |
| 2026-04-23 10:58 | 45.77021 | 126.00784 | 11279 ft | 328 kts | 234° |
| 2026-04-23 10:59 | 45.75262 | 125.98506 | 11603 ft | 349 kts | 221° |
| 2026-04-23 10:59 | 45.73324 | 125.96319 | 11904 ft | 365 kts | 221° |
| 2026-04-23 10:59 | 45.71288 | 125.93986 | 12192 ft | 381 kts | 222° |
| 2026-04-23 10:59 | 45.69197 | 125.91567 | 12460 ft | 395 kts | 222° |
| 2026-04-23 11:00 | 45.67064 | 125.89094 | 12876 ft | 404 kts | 222° |
| 2026-04-23 11:00 | 45.64859 | 125.86536 | 13513 ft | 407 kts | 222° |
| 2026-04-23 11:00 | 45.61931 | 125.83142 | 14333 ft | 411 kts | 222° |
| 2026-04-23 11:00 | 45.60451 | 125.81427 | 14733 ft | 414 kts | 223° |
| 2026-04-23 11:01 | 45.58216 | 125.78838 | 15308 ft | 416 kts | 223° |
| 2026-04-23 11:01 | 45.55962 | 125.76233 | 15896 ft | 419 kts | 223° |
| 2026-04-23 11:01 | 45.53698 | 125.73618 | 16446 ft | 422 kts | 223° |
| 2026-04-23 11:01 | 45.51410 | 125.70980 | 16999 ft | 424 kts | 223° |
| 2026-04-23 11:02 | 45.49141 | 125.68363 | 17513 ft | 427 kts | 223° |
| 2026-04-23 11:02 | 45.46834 | 125.65710 | 18028 ft | 430 kts | 223° |
| 2026-04-23 11:02 | 45.44267 | 125.63477 | 18445 ft | 442 kts | 207° |
| 2026-04-23 11:02 | 45.41225 | 125.62492 | 18931 ft | 454 kts | 188° |
| 2026-04-23 11:03 | 45.38076 | 125.62908 | 19370 ft | 465 kts | 169° |
| 2026-04-23 11:03 | 45.35006 | 125.64381 | 19832 ft | 470 kts | 162° |
| 2026-04-23 11:03 | 45.31897 | 125.66007 | 20240 ft | 474 kts | 162° |
| 2026-04-23 11:03 | 45.28816 | 125.67593 | 20642 ft | 477 kts | 163° |
| 2026-04-23 11:04 | 45.25654 | 125.69185 | 21039 ft | 481 kts | 163° |
| 2026-04-23 11:04 | 45.22488 | 125.70759 | 21401 ft | 484 kts | 163° |
| 2026-04-23 11:04 | 45.19320 | 125.72327 | 21782 ft | 487 kts | 163° |
| 2026-04-23 11:04 | 45.16128 | 125.73904 | 22151 ft | 490 kts | 163° |
| 2026-04-23 11:05 | 45.12919 | 125.75487 | 22506 ft | 493 kts | 163° |
| 2026-04-23 11:05 | 45.09684 | 125.77082 | 22839 ft | 497 kts | 163° |
| 2026-04-23 11:05 | 45.06412 | 125.78694 | 23156 ft | 500 kts | 163° |
| 2026-04-23 11:05 | 45.03128 | 125.80312 | 23491 ft | 502 kts | 163° |
| 2026-04-23 11:06 | 44.96541 | 125.83549 | 24477 ft | 500 kts | 163° |
| 2026-04-23 11:06 | 44.93250 | 125.85162 | 24937 ft | 500 kts | 163° |
| 2026-04-23 11:06 | 44.89988 | 125.86758 | 25383 ft | 499 kts | 163° |
| 2026-04-23 11:07 | 44.86730 | 125.88348 | 25810 ft | 499 kts | 164° |
| 2026-04-23 11:07 | 44.83450 | 125.89945 | 26203 ft | 499 kts | 164° |
| 2026-04-23 11:07 | 44.80147 | 125.91550 | 26576 ft | 499 kts | 164° |
| 2026-04-23 11:07 | 44.76865 | 125.92999 | 26940 ft | 496 kts | 170° |
| 2026-04-23 11:08 | 44.73499 | 125.93692 | 27304 ft | 490 kts | 181° |
| 2026-04-23 11:08 | 44.70139 | 125.93566 | 27684 ft | 483 kts | 191° |
| 2026-04-23 11:08 | 44.66833 | 125.92889 | 28066 ft | 480 kts | 194° |
| 2026-04-23 11:08 | 44.63554 | 125.92108 | 28401 ft | 480 kts | 195° |
| 2026-04-23 11:09 | 44.60244 | 125.91318 | 28675 ft | 482 kts | 195° |
| 2026-04-23 11:09 | 44.56967 | 125.90565 | 28940 ft | 483 kts | 194° |
| 2026-04-23 11:09 | 44.53612 | 125.89822 | 29226 ft | 484 kts | 194° |
| 2026-04-23 11:09 | 44.50328 | 125.89103 | 29498 ft | 485 kts | 194° |
| 2026-04-23 11:10 | 44.46991 | 125.88375 | 29757 ft | 486 kts | 194° |
| 2026-04-23 11:10 | 44.43647 | 125.87647 | 29983 ft | 487 kts | 194° |
| 2026-04-23 11:10 | 44.40292 | 125.86914 | 30041 ft | 489 kts | 194° |
| 2026-04-23 11:11 | 44.33621 | 125.85464 | 30045 ft | 488 kts | 194° |
| 2026-04-23 11:11 | 44.26924 | 125.84011 | 30036 ft | 488 kts | 195° |
| 2026-04-23 11:12 | 44.20193 | 125.82551 | 30038 ft | 488 kts | 195° |
| 2026-04-23 11:12 | 44.13431 | 125.81486 | 30033 ft | 495 kts | 186° |
| 2026-04-23 11:13 | 44.06585 | 125.82672 | 30030 ft | 505 kts | 169° |
| 2026-04-23 11:13 | 43.99927 | 125.85956 | 30027 ft | 508 kts | 165° |
| 2026-04-23 11:14 | 43.93061 | 125.87790 | 30025 ft | 497 kts | 182° |
| 2026-04-23 11:14 | 43.86293 | 125.87079 | 30031 ft | 487 kts | 194° |
| 2026-04-23 11:15 | 43.79675 | 125.85257 | 30026 ft | 482 kts | 201° |
| 2026-04-23 11:15 | 43.73429 | 125.82234 | 30026 ft | 475 kts | 210° |
| 2026-04-23 11:16 | 43.67561 | 125.78182 | 30032 ft | 470 kts | 214° |
| 2026-04-23 11:16 | 43.61742 | 125.73998 | 30025 ft | 472 kts | 214° |
| 2026-04-23 11:17 | 43.55951 | 125.69865 | 30018 ft | 473 kts | 214° |
| 2026-04-23 11:17 | 43.50124 | 125.65723 | 30022 ft | 472 kts | 214° |
| 2026-04-23 11:18 | 43.44298 | 125.61594 | 30023 ft | 472 kts | 214° |
| 2026-04-23 11:18 | 43.38484 | 125.57487 | 30020 ft | 472 kts | 213° |
| 2026-04-23 11:19 | 43.32636 | 125.53365 | 30024 ft | 473 kts | 213° |
| 2026-04-23 11:19 | 43.26785 | 125.49252 | 30022 ft | 473 kts | 213° |
| 2026-04-23 11:20 | 43.20943 | 125.45152 | 30022 ft | 473 kts | 213° |
| 2026-04-23 11:20 | 43.15101 | 125.41061 | 30022 ft | 472 kts | 213° |
| 2026-04-23 11:21 | 43.09293 | 125.37003 | 30012 ft | 472 kts | 213° |
| 2026-04-23 11:21 | 43.03417 | 125.32902 | 30023 ft | 473 kts | 213° |
| 2026-04-23 11:22 | 42.97561 | 125.28825 | 30018 ft | 474 kts | 213° |
| 2026-04-23 11:22 | 42.91708 | 125.24762 | 30023 ft | 474 kts | 213° |
| 2026-04-23 11:23 | 42.85820 | 125.20682 | 30013 ft | 475 kts | 212° |
| 2026-04-23 11:23 | 42.79953 | 125.16608 | 30015 ft | 474 kts | 213° |
| 2026-04-23 11:24 | 42.74128 | 125.12515 | 30014 ft | 474 kts | 213° |
| 2026-04-23 11:24 | 42.68269 | 125.08399 | 30017 ft | 474 kts | 213° |
| 2026-04-23 11:25 | 42.62447 | 125.04323 | 30011 ft | 475 kts | 213° |
| 2026-04-23 11:25 | 42.56551 | 125.00204 | 30020 ft | 475 kts | 212° |
| 2026-04-23 11:26 | 42.50677 | 124.96115 | 30026 ft | 474 kts | 212° |
| 2026-04-23 11:26 | 42.44828 | 124.92050 | 30024 ft | 474 kts | 213° |
| 2026-04-23 11:27 | 42.39000 | 124.88006 | 30013 ft | 474 kts | 212° |
| 2026-04-23 11:27 | 42.33129 | 124.83942 | 30017 ft | 474 kts | 212° |
| 2026-04-23 11:28 | 42.27238 | 124.79872 | 30011 ft | 475 kts | 212° |
| 2026-04-23 11:28 | 42.21360 | 124.75819 | 30017 ft | 475 kts | 212° |
| 2026-04-23 11:29 | 42.15498 | 124.71789 | 30023 ft | 475 kts | 212° |
| 2026-04-23 11:29 | 42.09604 | 124.67743 | 30018 ft | 475 kts | 212° |
| 2026-04-23 11:30 | 42.03746 | 124.63731 | 30022 ft | 474 kts | 212° |
| 2026-04-23 11:30 | 41.97873 | 124.59682 | 30021 ft | 474 kts | 214° |
| 2026-04-23 11:31 | 41.92182 | 124.55348 | 30029 ft | 473 kts | 215° |
| 2026-04-23 11:31 | 41.86474 | 124.50991 | 30037 ft | 473 kts | 215° |
| 2026-04-23 11:32 | 41.80740 | 124.46623 | 30033 ft | 472 kts | 215° |
| 2026-04-23 11:32 | 41.75071 | 124.42310 | 30040 ft | 472 kts | 214° |
| 2026-04-23 11:33 | 41.69346 | 124.37967 | 30037 ft | 473 kts | 214° |
| 2026-04-23 11:33 | 41.63629 | 124.33640 | 30043 ft | 473 kts | 214° |
| 2026-04-23 11:34 | 41.57899 | 124.29309 | 30041 ft | 474 kts | 214° |
| 2026-04-23 11:34 | 41.52162 | 124.24983 | 30047 ft | 474 kts | 214° |
| 2026-04-23 11:35 | 41.46450 | 124.20686 | 30046 ft | 473 kts | 214° |
| 2026-04-23 11:35 | 41.40745 | 124.16402 | 30047 ft | 473 kts | 214° |
| 2026-04-23 11:36 | 41.34956 | 124.12172 | 30044 ft | 474 kts | 213° |
| 2026-04-23 11:36 | 41.29200 | 124.08016 | 30049 ft | 474 kts | 213° |
| 2026-04-23 11:37 | 41.23420 | 124.03844 | 30049 ft | 474 kts | 213° |
| 2026-04-23 11:37 | 41.17619 | 123.99661 | 30049 ft | 473 kts | 212° |
| 2026-04-23 11:38 | 41.11862 | 123.95516 | 30048 ft | 473 kts | 213° |
| 2026-04-23 11:38 | 41.06084 | 123.91363 | 30046 ft | 473 kts | 212° |
| 2026-04-23 11:39 | 41.00312 | 123.87224 | 30046 ft | 474 kts | 212° |
| 2026-04-23 11:39 | 40.94523 | 123.83082 | 30043 ft | 473 kts | 212° |
| 2026-04-23 11:40 | 40.88740 | 123.78950 | 30042 ft | 473 kts | 212° |
| 2026-04-23 11:40 | 40.82949 | 123.74818 | 30049 ft | 474 kts | 212° |
| 2026-04-23 11:41 | 40.77226 | 123.70625 | 30047 ft | 473 kts | 213° |
| 2026-04-23 11:41 | 40.71466 | 123.66376 | 30055 ft | 474 kts | 213° |
| 2026-04-23 11:42 | 40.65722 | 123.62155 | 30053 ft | 474 kts | 213° |
| 2026-04-23 11:42 | 40.59968 | 123.57947 | 30062 ft | 474 kts | 213° |
| 2026-04-23 11:43 | 40.54233 | 123.53754 | 30057 ft | 474 kts | 212° |
| 2026-04-23 11:43 | 40.48473 | 123.49545 | 30061 ft | 475 kts | 212° |
| 2026-04-23 11:44 | 40.42674 | 123.45321 | 30058 ft | 475 kts | 212° |
| 2026-04-23 11:44 | 40.36935 | 123.41147 | 30060 ft | 475 kts | 212° |
| 2026-04-23 11:45 | 40.31137 | 123.36942 | 30058 ft | 476 kts | 212° |
| 2026-04-23 11:45 | 40.25377 | 123.32767 | 30060 ft | 476 kts | 211° |
| 2026-04-23 11:46 | 40.19552 | 123.28556 | 30060 ft | 477 kts | 211° |
| 2026-04-23 11:46 | 40.13761 | 123.24382 | 30059 ft | 476 kts | 211° |
| 2026-04-23 11:47 | 40.07965 | 123.20208 | 30061 ft | 477 kts | 211° |
| 2026-04-23 11:47 | 40.02179 | 123.16039 | 30060 ft | 477 kts | 211° |
| 2026-04-23 11:48 | 39.96379 | 123.11832 | 30060 ft | 477 kts | 211° |
| 2026-04-23 11:48 | 39.90607 | 123.07658 | 30061 ft | 478 kts | 211° |
| 2026-04-23 11:49 | 39.84799 | 123.03456 | 30062 ft | 477 kts | 211° |
| 2026-04-23 11:49 | 39.78988 | 122.99244 | 30063 ft | 477 kts | 211° |
| 2026-04-23 11:50 | 39.73215 | 122.95067 | 30064 ft | 478 kts | 211° |
| 2026-04-23 11:50 | 39.67386 | 122.90860 | 30066 ft | 478 kts | 211° |
| 2026-04-23 11:51 | 39.61586 | 122.86684 | 30067 ft | 478 kts | 211° |
| 2026-04-23 11:51 | 39.55778 | 122.82507 | 30068 ft | 478 kts | 211° |
| 2026-04-23 11:52 | 39.49970 | 122.78341 | 30071 ft | 478 kts | 211° |
| 2026-04-23 11:52 | 39.44176 | 122.74191 | 30070 ft | 478 kts | 211° |
| 2026-04-23 11:53 | 39.38354 | 122.70030 | 30073 ft | 479 kts | 211° |
| 2026-04-23 11:53 | 39.32510 | 122.65862 | 30072 ft | 479 kts | 211° |
| 2026-04-23 11:54 | 39.26710 | 122.61699 | 30074 ft | 480 kts | 212° |
| 2026-04-23 11:54 | 39.21036 | 122.57189 | 30074 ft | 480 kts | 214° |
| 2026-04-23 11:55 | 39.15369 | 122.52653 | 30076 ft | 480 kts | 214° |
| 2026-04-23 11:55 | 39.09705 | 122.48128 | 30078 ft | 479 kts | 214° |
| 2026-04-23 11:56 | 39.04050 | 122.43618 | 30079 ft | 480 kts | 213° |
| 2026-04-23 11:56 | 38.98363 | 122.39094 | 30083 ft | 480 kts | 213° |
| 2026-04-23 11:57 | 38.92705 | 122.34604 | 30074 ft | 481 kts | 213° |
| 2026-04-23 11:57 | 38.87036 | 122.30115 | 30081 ft | 481 kts | 213° |
| 2026-04-23 11:58 | 38.81335 | 122.25609 | 30083 ft | 481 kts | 213° |
| 2026-04-23 11:58 | 38.75634 | 122.21108 | 30082 ft | 480 kts | 213° |
| 2026-04-23 11:59 | 38.70586 | 122.15659 | 30086 ft | 474 kts | 232° |
| 2026-04-23 11:59 | 38.68758 | 122.12228 | 30092 ft | 472 kts | 243° |
| 2026-04-23 11:59 | 38.67428 | 122.08412 | 30097 ft | 469 kts | 253° |
| 2026-04-23 12:00 | 38.65623 | 122.00418 | 30103 ft | 468 kts | 256° |
| 2026-04-23 12:00 | 38.63896 | 121.92438 | 30104 ft | 469 kts | 256° |
| 2026-04-23 12:01 | 38.62122 | 121.84397 | 30100 ft | 470 kts | 256° |
| 2026-04-23 12:01 | 38.60329 | 121.76366 | 30099 ft | 471 kts | 256° |
| 2026-04-23 12:02 | 38.58524 | 121.68333 | 30094 ft | 471 kts | 256° |
| 2026-04-23 12:02 | 38.56726 | 121.60375 | 30094 ft | 471 kts | 256° |
| 2026-04-23 12:03 | 38.54903 | 121.52325 | 30093 ft | 470 kts | 256° |
| 2026-04-23 12:03 | 38.53095 | 121.44370 | 30089 ft | 470 kts | 256° |
| 2026-04-23 12:04 | 38.51274 | 121.36392 | 30086 ft | 470 kts | 256° |
| 2026-04-23 12:04 | 38.49435 | 121.28365 | 30087 ft | 470 kts | 256° |
| 2026-04-23 12:05 | 38.47550 | 121.20438 | 30081 ft | 471 kts | 253° |
| 2026-04-23 12:05 | 38.45015 | 121.12736 | 30082 ft | 474 kts | 245° |
| 2026-04-23 12:06 | 38.41706 | 121.05426 | 30077 ft | 475 kts | 239° |
| 2026-04-23 12:06 | 38.36440 | 120.94804 | 30073 ft | 475 kts | 239° |
| 2026-04-23 12:07 | 38.32906 | 120.87675 | 30070 ft | 476 kts | 239° |
| 2026-04-23 12:07 | 38.29390 | 120.80583 | 30070 ft | 477 kts | 239° |
| 2026-04-23 12:08 | 38.25381 | 120.73870 | 30060 ft | 480 kts | 227° |
| 2026-04-23 12:08 | 38.20076 | 120.68675 | 30073 ft | 483 kts | 211° |
| 2026-04-23 12:09 | 38.14057 | 120.64855 | 30327 ft | 486 kts | 206° |
| 2026-04-23 12:09 | 38.11015 | 120.63006 | 30694 ft | 484 kts | 206° |
| 2026-04-23 12:09 | 38.07968 | 120.61256 | 30999 ft | 483 kts | 204° |
| 2026-04-23 12:10 | 38.04821 | 120.59737 | 31284 ft | 482 kts | 200° |
| 2026-04-23 12:10 | 38.01629 | 120.58495 | 31580 ft | 480 kts | 196° |
| 2026-04-23 12:10 | 37.98412 | 120.57536 | 31861 ft | 479 kts | 192° |
| 2026-04-23 12:10 | 37.95106 | 120.56838 | 32045 ft | 478 kts | 188° |
| 2026-04-23 12:11 | 37.88485 | 120.56171 | 32052 ft | 479 kts | 185° |
| 2026-04-23 12:11 | 37.81849 | 120.55684 | 32068 ft | 480 kts | 185° |
| 2026-04-23 12:12 | 37.75173 | 120.55177 | 32050 ft | 480 kts | 185° |
| 2026-04-23 12:12 | 37.68491 | 120.54660 | 32053 ft | 480 kts | 185° |
| 2026-04-23 12:13 | 37.61885 | 120.53903 | 32053 ft | 479 kts | 188° |
| 2026-04-23 12:13 | 37.55253 | 120.52911 | 32065 ft | 478 kts | 189° |
| 2026-04-23 12:14 | 37.48690 | 120.51932 | 32075 ft | 477 kts | 189° |
| 2026-04-23 12:14 | 37.42099 | 120.50951 | 32092 ft | 477 kts | 189° |
| 2026-04-23 12:15 | 37.35517 | 120.49972 | 32072 ft | 477 kts | 189° |
| 2026-04-23 12:15 | 37.28939 | 120.48998 | 32069 ft | 476 kts | 189° |
| 2026-04-23 12:16 | 37.22347 | 120.48021 | 32066 ft | 476 kts | 189° |
| 2026-04-23 12:16 | 37.15770 | 120.47051 | 32059 ft | 475 kts | 189° |
| 2026-04-23 12:17 | 37.09242 | 120.46088 | 32059 ft | 474 kts | 190° |
| 2026-04-23 12:17 | 37.02709 | 120.45127 | 32069 ft | 473 kts | 190° |
| 2026-04-23 12:18 | 36.96158 | 120.44164 | 32050 ft | 473 kts | 190° |
| 2026-04-23 12:18 | 36.89650 | 120.43210 | 32050 ft | 472 kts | 190° |
| 2026-04-23 12:19 | 36.83148 | 120.42261 | 32050 ft | 471 kts | 191° |
| 2026-04-23 12:19 | 36.76634 | 120.41305 | 32069 ft | 471 kts | 191° |
| 2026-04-23 12:20 | 36.70132 | 120.40359 | 32066 ft | 471 kts | 191° |
| 2026-04-23 12:20 | 36.63614 | 120.39409 | 32077 ft | 470 kts | 191° |
| 2026-04-23 12:21 | 36.57137 | 120.38467 | 32092 ft | 470 kts | 191° |
| 2026-04-23 12:21 | 36.50607 | 120.37775 | 32074 ft | 471 kts | 187° |
| 2026-04-23 12:22 | 36.44075 | 120.37497 | 32082 ft | 469 kts | 187° |
| 2026-04-23 12:22 | 36.37566 | 120.37261 | 32076 ft | 470 kts | 185° |
| 2026-04-23 12:23 | 36.31033 | 120.37985 | 32083 ft | 475 kts | 175° |
| 2026-04-23 12:23 | 36.24611 | 120.40059 | 32087 ft | 482 kts | 165° |
| 2026-04-23 12:24 | 36.18376 | 120.43352 | 32373 ft | 485 kts | 161° |
| 2026-04-23 12:24 | 36.15310 | 120.44930 | 32680 ft | 480 kts | 165° |
| 2026-04-23 12:24 | 36.12168 | 120.46281 | 32942 ft | 475 kts | 169° |
| 2026-04-23 12:25 | 36.08986 | 120.47343 | 33196 ft | 469 kts | 173° |
| 2026-04-23 12:25 | 36.05838 | 120.48109 | 33413 ft | 465 kts | 176° |
| 2026-04-23 12:25 | 36.02615 | 120.48783 | 33601 ft | 465 kts | 177° |
| 2026-04-23 12:25 | 35.99443 | 120.49451 | 33811 ft | 464 kts | 176° |
| 2026-04-23 12:26 | 35.96279 | 120.50295 | 34018 ft | 466 kts | 173° |
| 2026-04-23 12:26 | 35.93171 | 120.51350 | 34208 ft | 467 kts | 169° |
| 2026-04-23 12:26 | 35.90084 | 120.52632 | 34366 ft | 470 kts | 166° |
| 2026-04-23 12:26 | 35.87038 | 120.54146 | 34538 ft | 472 kts | 163° |
| 2026-04-23 12:27 | 35.84038 | 120.55765 | 34701 ft | 472 kts | 163° |
| 2026-04-23 12:27 | 35.81030 | 120.57361 | 34843 ft | 471 kts | 164° |
| 2026-04-23 12:27 | 35.78034 | 120.58939 | 35008 ft | 470 kts | 164° |
| 2026-04-23 12:27 | 35.75017 | 120.60524 | 35085 ft | 471 kts | 163° |
| 2026-04-23 12:28 | 35.69154 | 120.64204 | 35095 ft | 476 kts | 158° |
| 2026-04-23 12:28 | 35.63375 | 120.68142 | 35088 ft | 477 kts | 158° |
| 2026-04-23 12:29 | 35.57585 | 120.72074 | 35100 ft | 477 kts | 158° |
| 2026-04-23 12:29 | 35.51753 | 120.76012 | 35095 ft | 476 kts | 159° |
| 2026-04-23 12:30 | 35.45846 | 120.79549 | 35101 ft | 469 kts | 165° |
| 2026-04-23 12:30 | 35.39830 | 120.82538 | 35094 ft | 467 kts | 166° |
| 2026-04-23 12:31 | 35.33805 | 120.85516 | 35093 ft | 468 kts | 166° |
| 2026-04-23 12:31 | 35.27801 | 120.88483 | 35091 ft | 468 kts | 166° |
| 2026-04-23 12:32 | 35.21763 | 120.91469 | 35090 ft | 469 kts | 166° |
| 2026-04-23 12:32 | 35.15710 | 120.94453 | 35097 ft | 469 kts | 166° |
| 2026-04-23 12:33 | 35.09691 | 120.97431 | 35092 ft | 469 kts | 166° |
| 2026-04-23 12:33 | 35.03649 | 121.00434 | 35095 ft | 465 kts | 166° |
| 2026-04-23 12:34 | 34.97690 | 121.03387 | 35110 ft | 465 kts | 166° |
| 2026-04-23 12:34 | 34.91702 | 121.06351 | 35119 ft | 465 kts | 167° |
| 2026-04-23 12:35 | 34.85679 | 121.09328 | 35104 ft | 465 kts | 167° |
| 2026-04-23 12:35 | 34.79712 | 121.12271 | 35106 ft | 465 kts | 167° |
| 2026-04-23 12:36 | 34.73701 | 121.15233 | 35107 ft | 465 kts | 167° |
| 2026-04-23 12:36 | 34.67736 | 121.18169 | 35106 ft | 465 kts | 167° |
| 2026-04-23 12:37 | 34.61735 | 121.21114 | 35107 ft | 464 kts | 167° |
| 2026-04-23 12:37 | 34.55739 | 121.24056 | 35110 ft | 464 kts | 168° |
| 2026-04-23 12:38 | 34.49773 | 121.26977 | 35111 ft | 464 kts | 168° |
| 2026-04-23 12:38 | 34.43783 | 121.29907 | 35113 ft | 463 kts | 168° |
| 2026-04-23 12:39 | 34.37830 | 121.32811 | 35113 ft | 464 kts | 168° |
| 2026-04-23 12:39 | 34.31842 | 121.35731 | 35113 ft | 463 kts | 168° |
| 2026-04-23 12:40 | 34.25881 | 121.38632 | 35113 ft | 464 kts | 168° |
| 2026-04-23 12:40 | 34.19879 | 121.41548 | 35120 ft | 464 kts | 168° |
| 2026-04-23 12:41 | 34.13916 | 121.44444 | 35116 ft | 463 kts | 168° |
| 2026-04-23 12:41 | 34.07943 | 121.47337 | 35116 ft | 461 kts | 168° |
| 2026-04-23 12:42 | 34.01989 | 121.50216 | 35113 ft | 462 kts | 169° |
| 2026-04-23 12:42 | 33.96037 | 121.53092 | 35103 ft | 461 kts | 169° |
| 2026-04-23 12:43 | 33.90088 | 121.55961 | 35111 ft | 460 kts | 169° |
| 2026-04-23 12:43 | 33.87155 | 121.57378 | 34994 ft | 456 kts | 169° |
| 2026-04-23 12:43 | 33.84215 | 121.58798 | 34575 ft | 454 kts | 169° |
| 2026-04-23 12:44 | 33.81274 | 121.60212 | 33897 ft | 457 kts | 169° |
| 2026-04-23 12:44 | 33.78324 | 121.61628 | 33362 ft | 458 kts | 169° |
| 2026-04-23 12:44 | 33.75375 | 121.63039 | 33114 ft | 461 kts | 169° |
| 2026-04-23 12:44 | 33.72363 | 121.64484 | 33109 ft | 463 kts | 168° |
| 2026-04-23 12:45 | 33.66397 | 121.67392 | 33105 ft | 463 kts | 168° |
| 2026-04-23 12:45 | 33.60449 | 121.70316 | 33100 ft | 463 kts | 169° |
| 2026-04-23 12:46 | 33.54503 | 121.73222 | 33100 ft | 462 kts | 169° |
| 2026-04-23 12:46 | 33.48561 | 121.76116 | 33097 ft | 462 kts | 169° |
| 2026-04-23 12:47 | 33.42592 | 121.79022 | 33096 ft | 463 kts | 169° |
| 2026-04-23 12:47 | 33.36660 | 121.81908 | 33097 ft | 463 kts | 169° |
| 2026-04-23 12:48 | 33.30692 | 121.84811 | 33096 ft | 464 kts | 168° |
| 2026-04-23 12:48 | 33.24713 | 121.87717 | 33098 ft | 463 kts | 168° |
| 2026-04-23 12:49 | 33.18740 | 121.90612 | 32886 ft | 463 kts | 168° |
| 2026-04-23 12:49 | 33.15746 | 121.92065 | 32623 ft | 464 kts | 168° |
| 2026-04-23 12:49 | 33.12746 | 121.93516 | 32354 ft | 464 kts | 168° |
| 2026-04-23 12:50 | 33.09765 | 121.94958 | 32093 ft | 465 kts | 168° |
| 2026-04-23 12:50 | 33.06796 | 121.96394 | 31833 ft | 466 kts | 168° |
| 2026-04-23 12:50 | 33.03777 | 121.97852 | 31565 ft | 466 kts | 168° |
| 2026-04-23 12:50 | 33.00764 | 121.99305 | 31300 ft | 468 kts | 168° |
| 2026-04-23 12:51 | 32.97739 | 122.00762 | 31107 ft | 469 kts | 168° |
| 2026-04-23 12:51 | 32.94723 | 122.02216 | 31097 ft | 470 kts | 168° |
| 2026-04-23 12:51 | 32.88680 | 122.05128 | 31089 ft | 469 kts | 168° |
| 2026-04-23 12:52 | 32.82652 | 122.08029 | 31080 ft | 468 kts | 168° |
| 2026-04-23 12:52 | 32.76609 | 122.10929 | 31076 ft | 469 kts | 168° |
| 2026-04-23 12:53 | 32.70553 | 122.13831 | 31078 ft | 469 kts | 168° |
| 2026-04-23 12:53 | 32.64495 | 122.16732 | 31075 ft | 468 kts | 168° |
| 2026-04-23 12:54 | 32.58496 | 122.19601 | 31074 ft | 467 kts | 168° |
| 2026-04-23 12:54 | 32.52461 | 122.22481 | 31074 ft | 468 kts | 168° |
| 2026-04-23 12:55 | 32.46411 | 122.25364 | 31073 ft | 468 kts | 168° |
| 2026-04-23 12:55 | 32.40378 | 122.28236 | 31072 ft | 468 kts | 168° |
| 2026-04-23 12:56 | 32.34341 | 122.31107 | 31077 ft | 467 kts | 168° |
| 2026-04-23 12:56 | 32.28334 | 122.33956 | 31079 ft | 466 kts | 168° |
| 2026-04-23 12:57 | 32.22288 | 122.36821 | 31077 ft | 467 kts | 168° |
| 2026-04-23 12:57 | 32.16295 | 122.39658 | 31075 ft | 465 kts | 168° |
| 2026-04-23 12:58 | 32.10259 | 122.42510 | 31075 ft | 468 kts | 168° |
| 2026-04-23 12:58 | 32.04225 | 122.45357 | 31075 ft | 468 kts | 168° |
| 2026-04-23 12:59 | 31.98182 | 122.48208 | 31073 ft | 467 kts | 168° |
| 2026-04-23 12:59 | 31.92166 | 122.51042 | 31067 ft | 467 kts | 168° |
| 2026-04-23 13:00 | 31.86106 | 122.53892 | 31068 ft | 469 kts | 168° |
| 2026-04-23 13:00 | 31.80061 | 122.56737 | 31067 ft | 467 kts | 168° |
| 2026-04-23 13:01 | 31.74013 | 122.59447 | 31060 ft | 458 kts | 174° |
| 2026-04-23 13:01 | 31.70927 | 122.60148 | 31070 ft | 443 kts | 184° |
| 2026-04-23 13:01 | 31.67899 | 122.60238 | 31072 ft | 430 kts | 193° |
| 2026-04-23 13:02 | 31.65009 | 122.59797 | 30951 ft | 415 kts | 200° |
| 2026-04-23 13:02 | 31.62251 | 122.58875 | 30407 ft | 404 kts | 207° |
| 2026-04-23 13:02 | 31.59715 | 122.57518 | 29449 ft | 403 kts | 214° |
| 2026-04-23 13:02 | 31.57391 | 122.55763 | 28268 ft | 407 kts | 220° |
| 2026-04-23 13:03 | 31.55084 | 122.53783 | 27086 ft | 415 kts | 221° |
| 2026-04-23 13:03 | 31.52781 | 122.51788 | 26012 ft | 419 kts | 221° |
| 2026-04-23 13:03 | 31.50404 | 122.49725 | 25217 ft | 423 kts | 221° |
| 2026-04-23 13:03 | 31.48050 | 122.47719 | 24752 ft | 428 kts | 219° |
| 2026-04-23 13:04 | 31.45499 | 122.45856 | 24580 ft | 433 kts | 215° |
| 2026-04-23 13:04 | 31.42796 | 122.44211 | 24572 ft | 436 kts | 211° |
| 2026-04-23 13:04 | 31.40006 | 122.42821 | 24578 ft | 439 kts | 207° |
| 2026-04-23 13:04 | 31.37171 | 122.41532 | 24582 ft | 440 kts | 207° |
| 2026-04-23 13:05 | 31.34314 | 122.40250 | 24578 ft | 440 kts | 207° |
| 2026-04-23 13:05 | 31.31449 | 122.38971 | 24584 ft | 439 kts | 207° |
| 2026-04-23 13:05 | 31.28596 | 122.37701 | 24584 ft | 438 kts | 207° |
| 2026-04-23 13:05 | 31.25752 | 122.36436 | 24592 ft | 438 kts | 207° |
| 2026-04-23 13:06 | 31.20066 | 122.33908 | 24593 ft | 438 kts | 207° |
| 2026-04-23 13:06 | 31.17216 | 122.32643 | 24584 ft | 437 kts | 207° |
| 2026-04-23 13:06 | 31.14347 | 122.31371 | 24585 ft | 437 kts | 207° |
| 2026-04-23 13:07 | 31.11529 | 122.30121 | 24587 ft | 437 kts | 207° |
| 2026-04-23 13:07 | 31.08676 | 122.28857 | 24597 ft | 437 kts | 207° |
| 2026-04-23 13:07 | 31.05846 | 122.27601 | 24594 ft | 437 kts | 207° |
| 2026-04-23 13:07 | 31.02990 | 122.26336 | 24589 ft | 438 kts | 207° |
| 2026-04-23 13:08 | 31.00146 | 122.25146 | 24590 ft | 440 kts | 205° |
| 2026-04-23 13:08 | 30.97172 | 122.24078 | 24598 ft | 442 kts | 203° |
| 2026-04-23 13:08 | 30.94223 | 122.23093 | 24596 ft | 441 kts | 203° |
| 2026-04-23 13:08 | 30.91293 | 122.22111 | 24593 ft | 441 kts | 203° |
| 2026-04-23 13:09 | 30.88349 | 122.21127 | 24600 ft | 441 kts | 203° |
| 2026-04-23 13:09 | 30.85387 | 122.20138 | 24592 ft | 440 kts | 204° |
| 2026-04-23 13:09 | 30.82574 | 122.18849 | 24575 ft | 429 kts | 214° |
| 2026-04-23 13:09 | 30.80117 | 122.16949 | 24590 ft | 420 kts | 224° |
| 2026-04-23 13:10 | 30.78061 | 122.14568 | 24594 ft | 415 kts | 233° |
| 2026-04-23 13:10 | 30.76407 | 122.11842 | 24606 ft | 413 kts | 239° |
| 2026-04-23 13:10 | 30.74840 | 122.09076 | 24602 ft | 413 kts | 238° |
| 2026-04-23 13:10 | 30.73273 | 122.06306 | 24602 ft | 413 kts | 239° |
| 2026-04-23 13:11 | 30.71703 | 122.03524 | 24602 ft | 413 kts | 239° |
| 2026-04-23 13:11 | 30.70133 | 122.00740 | 24600 ft | 412 kts | 239° |
| 2026-04-23 13:11 | 30.68560 | 121.97948 | 24596 ft | 412 kts | 239° |
| 2026-04-23 13:11 | 30.67000 | 121.95179 | 24600 ft | 411 kts | 239° |
| 2026-04-23 13:12 | 30.65442 | 121.92409 | 24595 ft | 411 kts | 239° |
| 2026-04-23 13:12 | 30.63866 | 121.89612 | 24608 ft | 411 kts | 239° |
| 2026-04-23 13:12 | 30.62296 | 121.86828 | 24605 ft | 412 kts | 239° |
| 2026-04-23 13:12 | 30.60737 | 121.84062 | 24605 ft | 412 kts | 239° |
| 2026-04-23 13:13 | 30.59181 | 121.81303 | 24604 ft | 412 kts | 239° |
| 2026-04-23 13:13 | 30.57608 | 121.78515 | 24608 ft | 412 kts | 239° |
| 2026-04-23 13:13 | 30.56035 | 121.75733 | 24606 ft | 412 kts | 239° |
| 2026-04-23 13:13 | 30.54477 | 121.72978 | 24609 ft | 412 kts | 239° |
| 2026-04-23 13:14 | 30.52897 | 121.70182 | 24609 ft | 411 kts | 239° |
| 2026-04-23 13:14 | 30.51328 | 121.67411 | 24617 ft | 411 kts | 239° |
| 2026-04-23 13:14 | 30.49762 | 121.64647 | 24617 ft | 412 kts | 239° |
| 2026-04-23 13:14 | 30.48198 | 121.61887 | 24604 ft | 412 kts | 239° |
| 2026-04-23 13:15 | 30.46634 | 121.59131 | 24087 ft | 412 kts | 239° |
| 2026-04-23 13:15 | 30.45058 | 121.56358 | 23295 ft | 409 kts | 239° |
| 2026-04-23 13:15 | 30.43527 | 121.53662 | 22725 ft | 402 kts | 239° |
| 2026-04-23 13:15 | 30.42004 | 121.50990 | 22139 ft | 397 kts | 239° |
| 2026-04-23 13:16 | 30.40499 | 121.48348 | 21515 ft | 394 kts | 239° |
| 2026-04-23 13:16 | 30.38994 | 121.45706 | 20886 ft | 391 kts | 239° |
| 2026-04-23 13:16 | 30.37509 | 121.43103 | 20254 ft | 389 kts | 239° |
| 2026-04-23 13:16 | 30.36012 | 121.40479 | 19628 ft | 387 kts | 239° |
| 2026-04-23 13:17 | 30.34548 | 121.37913 | 19020 ft | 385 kts | 239° |
| 2026-04-23 13:17 | 30.33072 | 121.35324 | 18423 ft | 383 kts | 239° |
| 2026-04-23 13:17 | 30.31628 | 121.32800 | 17846 ft | 382 kts | 239° |
| 2026-04-23 13:17 | 30.30166 | 121.30241 | 17259 ft | 381 kts | 238° |
| 2026-04-23 13:18 | 30.28706 | 121.27688 | 16686 ft | 380 kts | 238° |
| 2026-04-23 13:18 | 30.27252 | 121.25150 | 16111 ft | 378 kts | 238° |
| 2026-04-23 13:18 | 30.25805 | 121.22633 | 15563 ft | 377 kts | 238° |
| 2026-04-23 13:18 | 30.24283 | 121.20183 | 15026 ft | 376 kts | 236° |
| 2026-04-23 13:19 | 30.22725 | 121.17734 | 14503 ft | 374 kts | 236° |
| 2026-04-23 13:19 | 30.21202 | 121.15347 | 13996 ft | 373 kts | 236° |
| 2026-04-23 13:19 | 30.19656 | 121.12926 | 13432 ft | 373 kts | 236° |
| 2026-04-23 13:19 | 30.18134 | 121.10542 | 12858 ft | 373 kts | 236° |
| 2026-04-23 13:20 | 30.16580 | 121.08112 | 12321 ft | 371 kts | 236° |
| 2026-04-23 13:20 | 30.15067 | 121.05750 | 11988 ft | 361 kts | 236° |
| 2026-04-23 13:20 | 30.13609 | 121.03472 | 11663 ft | 353 kts | 236° |
| 2026-04-23 13:20 | 30.12169 | 121.01228 | 11370 ft | 344 kts | 236° |
| 2026-04-23 13:21 | 30.10758 | 120.99027 | 11177 ft | 331 kts | 236° |
| 2026-04-23 13:21 | 30.09415 | 120.96932 | 11009 ft | 319 kts | 236° |
| 2026-04-23 13:21 | 30.08115 | 120.94904 | 10813 ft | 309 kts | 236° |
| 2026-04-23 13:21 | 30.06855 | 120.92936 | 10594 ft | 300 kts | 236° |
| 2026-04-23 13:22 | 30.05643 | 120.91046 | 10457 ft | 289 kts | 236° |
| 2026-04-23 13:22 | 30.04474 | 120.89225 | 10320 ft | 278 kts | 236° |
| 2026-04-23 13:22 | 30.03405 | 120.87420 | 10163 ft | 267 kts | 247° |
| 2026-04-23 13:22 | 30.02935 | 120.85399 | 9996 ft | 261 kts | 269° |
| 2026-04-23 13:23 | 30.03182 | 120.83278 | 9934 ft | 273 kts | 289° |
| 2026-04-23 13:23 | 30.03894 | 120.81234 | 9915 ft | 276 kts | 293° |
| 2026-04-23 13:23 | 30.04635 | 120.79195 | 9893 ft | 277 kts | 293° |
| 2026-04-23 13:23 | 30.05374 | 120.77148 | 9846 ft | 277 kts | 293° |
| 2026-04-23 13:24 | 30.06121 | 120.75065 | 9456 ft | 279 kts | 293° |
| 2026-04-23 13:24 | 30.06850 | 120.73016 | 9078 ft | 278 kts | 293° |
| 2026-04-23 13:24 | 30.07579 | 120.70959 | 8715 ft | 275 kts | 293° |
| 2026-04-23 13:24 | 30.08292 | 120.68935 | 8356 ft | 274 kts | 294° |
| 2026-04-23 13:25 | 30.09010 | 120.66904 | 7999 ft | 273 kts | 294° |
| 2026-04-23 13:25 | 30.09723 | 120.64883 | 7667 ft | 271 kts | 294° |
| 2026-04-23 13:25 | 30.10429 | 120.62873 | 7313 ft | 271 kts | 294° |
| 2026-04-23 13:25 | 30.11135 | 120.60870 | 6959 ft | 270 kts | 295° |
| 2026-04-23 13:26 | 30.11844 | 120.58861 | 6619 ft | 269 kts | 295° |
| 2026-04-23 13:26 | 30.12553 | 120.56853 | 6272 ft | 268 kts | 294° |
| 2026-04-23 13:26 | 30.13245 | 120.54887 | 5937 ft | 268 kts | 295° |
| 2026-04-23 13:26 | 30.13941 | 120.52902 | 5592 ft | 266 kts | 295° |
| 2026-04-23 13:27 | 30.14632 | 120.50940 | 5281 ft | 264 kts | 295° |
| 2026-04-23 13:27 | 30.15316 | 120.48999 | 5071 ft | 257 kts | 295° |
| 2026-04-23 13:27 | 30.15912 | 120.47082 | 4950 ft | 247 kts | 283° |
| 2026-04-23 13:27 | 30.15738 | 120.45143 | 4720 ft | 250 kts | 248° |
| 2026-04-23 13:28 | 30.14916 | 120.43378 | 4455 ft | 250 kts | 242° |
| 2026-04-23 13:28 | 30.14075 | 120.41619 | 4153 ft | 249 kts | 243° |
| 2026-04-23 13:28 | 30.13262 | 120.39866 | 3867 ft | 248 kts | 244° |
| 2026-04-23 13:28 | 30.12475 | 120.38120 | 3632 ft | 242 kts | 245° |
| 2026-04-23 13:29 | 30.11713 | 120.36449 | 3546 ft | 231 kts | 243° |
| 2026-04-23 13:29 | 30.11143 | 120.34747 | 3391 ft | 217 kts | 267° |
| 2026-04-23 13:29 | 30.11360 | 120.33127 | 3276 ft | 198 kts | 294° |
| 2026-04-23 13:29 | 30.12031 | 120.31846 | 3110 ft | 176 kts | 315° |
| 2026-04-23 13:30 | 30.12908 | 120.30984 | 2965 ft | 155 kts | 332° |
| 2026-04-23 13:30 | 30.13875 | 120.30487 | 2863 ft | 151 kts | 347° |
| 2026-04-23 13:30 | 30.14939 | 120.30312 | 2664 ft | 162 kts | 2° |
| 2026-04-23 13:30 | 30.16111 | 120.30528 | 2412 ft | 175 kts | 18° |
| 2026-04-23 13:31 | 30.17192 | 120.31184 | 2156 ft | 176 kts | 38° |
| 2026-04-23 13:31 | 30.17983 | 120.32244 | 1902 ft | 176 kts | 57° |
| 2026-04-23 13:31 | 30.18546 | 120.33459 | 1629 ft | 167 kts | 61° |
| 2026-04-23 13:31 | 30.19040 | 120.34622 | 1392 ft | 155 kts | 62° |
| 2026-04-23 13:32 | 30.19497 | 120.35696 | 1221 ft | 145 kts | 61° |
| 2026-04-23 13:32 | 30.19950 | 120.36736 | 1028 ft | 141 kts | 62° |
| 2026-04-23 13:32 | 30.20398 | 120.37750 | 837 ft | 142 kts | 60° |
| 2026-04-23 13:32 | 30.20842 | 120.38749 | 663 ft | 141 kts | 61° |
| 2026-04-23 13:33 | 30.21303 | 120.39761 | 481 ft | 140 kts | 60° |
| 2026-04-23 13:33 | 30.21757 | 120.40747 | 253 ft | 140 kts | 61° |
| 2026-04-23 13:33 | 30.22202 | 120.41755 | 73 ft | 140 kts | 61° |
| 2026-04-23 13:33 | 30.22624 | 120.42703 | 31 ft | 121 kts | 60° |
| 2026-04-23 13:34 | 30.22947 | 120.43428 | 29 ft | 76 kts | 62° |
| 2026-04-23 13:34 | 30.23131 | 120.43843 | 29 ft | 44 kts | 62° |
| 2026-04-23 13:34 | 30.23330 | 120.44099 | 29 ft | 34 kts | 34° |
| 2026-04-23 13:34 | 30.23456 | 120.44198 | 29 ft | 19 kts | 27° |
| 2026-04-23 13:35 | 30.23571 | 120.44173 | 29 ft | 17 kts | 333° |
| 2026-04-23 13:35 | 30.23602 | 120.44088 | 29 ft | 13 kts | 244° |
| 2026-04-23 13:35 | 30.23559 | 120.43988 | 29 ft | 14 kts | 243° |
| 2026-04-23 13:35 | 30.23514 | 120.43887 | 29 ft | 14 kts | 242° |
| 2026-04-23 13:36 | 30.23467 | 120.43781 | 29 ft | 14 kts | 243° |
| 2026-04-23 13:36 | 30.23420 | 120.43674 | 29 ft | 15 kts | 243° |
| 2026-04-23 13:36 | 30.23384 | 120.43594 | 29 ft | 4 kts | 245° |
| 2026-04-23 13:36 | 30.23398 | 120.43572 | 29 ft | 4 kts | 332° |
| 2026-04-23 13:37 | 30.23431 | 120.43552 | 29 ft | 5 kts | 333° |
| 2026-04-23 13:37 | 30.23452 | 120.43539 | 29 ft | 0 kts | 333° |